sensor_id;sensor_type;location;lat;lon;timestamp;temperature;humidity
12893;DHT22;6514;48.606;9.222;2023-06-26T00:01:07;17.70;99.90
12893;DHT22;6514;48.606;9.222;2023-06-26T00:03:34;17.70;99.90
12893;DHT22;6514;48.606;9.222;2023-06-26T00:06:01;17.60;99.90
12893;DHT22;6514;48.606;9.222;2023-06-26T00:08:27;17.60;99.90
12893;DHT22;6514;48.606;9.222;2023-06-26T00:10:54;17.50;99.90
12893;DHT22;6514;48.606;9.222;2023-06-26T00:13:22;17.50;99.90
12893;DHT22;6514;48.606;9.222;2023-06-26T00:15:50;17.50;99.90
12893;DHT22;6514;48.606;9.222;2023-06-26T00:18:17;17.40;99.90
12893;DHT22;6514;48.606;9.222;2023-06-26T00:20:44;17.40;99.90
12893;DHT22;6514;48.606;9.222;2023-06-26T00:23:11;17.40;99.90
12893;DHT22;6514;48.606;9.222;2023-06-26T00:25:38;17.30;99.90
12893;DHT22;6514;48.606;9.222;2023-06-26T00:28:05;17.30;99.90
12893;DHT22;6514;48.606;9.222;2023-06-26T00:30:32;17.30;99.90
12893;DHT22;6514;48.606;9.222;2023-06-26T00:33:00;17.30;99.90
12893;DHT22;6514;48.606;9.222;2023-06-26T00:35:27;17.20;99.90
12893;DHT22;6514;48.606;9.222;2023-06-26T00:37:53;17.10;99.90
12893;DHT22;6514;48.606;9.222;2023-06-26T00:40:20;17.00;99.90
12893;DHT22;6514;48.606;9.222;2023-06-26T00:42:47;17.00;99.90
12893;DHT22;6514;48.606;9.222;2023-06-26T00:45:14;16.90;99.90
12893;DHT22;6514;48.606;9.222;2023-06-26T00:47:41;16.80;99.90
12893;DHT22;6514;48.606;9.222;2023-06-26T00:50:09;16.80;99.90
12893;DHT22;6514;48.606;9.222;2023-06-26T00:52:37;16.70;99.90
12893;DHT22;6514;48.606;9.222;2023-06-26T00:55:04;16.70;99.90
12893;DHT22;6514;48.606;9.222;2023-06-26T00:57:31;16.70;99.90
12893;DHT22;6514;48.606;9.222;2023-06-26T00:59:58;16.70;99.90
12893;DHT22;6514;48.606;9.222;2023-06-26T01:02:25;16.70;99.90
12893;DHT22;6514;48.606;9.222;2023-06-26T01:04:59;16.80;99.90
12893;DHT22;6514;48.606;9.222;2023-06-26T01:07:28;16.90;99.90
12893;DHT22;6514;48.606;9.222;2023-06-26T01:09:55;16.90;99.90
12893;DHT22;6514;48.606;9.222;2023-06-26T01:12:22;17.00;99.90
12893;DHT22;6514;48.606;9.222;2023-06-26T01:14:49;17.00;99.90
12893;DHT22;6514;48.606;9.222;2023-06-26T01:17:16;17.00;99.90
12893;DHT22;6514;48.606;9.222;2023-06-26T01:19:43;17.00;99.90
12893;DHT22;6514;48.606;9.222;2023-06-26T01:22:16;17.00;99.90
12893;DHT22;6514;48.606;9.222;2023-06-26T01:24:56;17.00;99.90
12893;DHT22;6514;48.606;9.222;2023-06-26T01:27:28;17.00;99.90
12893;DHT22;6514;48.606;9.222;2023-06-26T01:29:59;17.00;99.90
12893;DHT22;6514;48.606;9.222;2023-06-26T01:32:26;17.00;99.90
12893;DHT22;6514;48.606;9.222;2023-06-26T01:34:54;17.00;99.90
12893;DHT22;6514;48.606;9.222;2023-06-26T01:37:21;17.00;99.90
12893;DHT22;6514;48.606;9.222;2023-06-26T01:39:48;17.00;99.90
12893;DHT22;6514;48.606;9.222;2023-06-26T01:42:15;17.10;99.90
12893;DHT22;6514;48.606;9.222;2023-06-26T01:44:45;17.00;99.90
12893;DHT22;6514;48.606;9.222;2023-06-26T01:47:18;16.90;99.90
12893;DHT22;6514;48.606;9.222;2023-06-26T01:49:49;16.90;99.90
12893;DHT22;6514;48.606;9.222;2023-06-26T01:52:21;16.80;99.90
12893;DHT22;6514;48.606;9.222;2023-06-26T01:54:54;16.80;99.90
12893;DHT22;6514;48.606;9.222;2023-06-26T01:57:22;16.70;99.90
12893;DHT22;6514;48.606;9.222;2023-06-26T01:59:51;16.60;99.90
12893;DHT22;6514;48.606;9.222;2023-06-26T02:02:18;16.50;99.90
12893;DHT22;6514;48.606;9.222;2023-06-26T02:04:45;16.40;99.90
12893;DHT22;6514;48.606;9.222;2023-06-26T02:07:14;16.40;99.90
12893;DHT22;6514;48.606;9.222;2023-06-26T02:09:40;16.30;99.90
12893;DHT22;6514;48.606;9.222;2023-06-26T02:12:08;16.30;99.90
12893;DHT22;6514;48.606;9.222;2023-06-26T02:14:35;16.20;99.90
12893;DHT22;6514;48.606;9.222;2023-06-26T02:17:04;16.20;99.90
12893;DHT22;6514;48.606;9.222;2023-06-26T02:19:31;16.20;99.90
12893;DHT22;6514;48.606;9.222;2023-06-26T02:21:57;16.10;99.90
12893;DHT22;6514;48.606;9.222;2023-06-26T02:24:24;16.10;99.90
12893;DHT22;6514;48.606;9.222;2023-06-26T02:26:52;16.10;99.90
12893;DHT22;6514;48.606;9.222;2023-06-26T02:29:19;16.00;99.90
12893;DHT22;6514;48.606;9.222;2023-06-26T02:31:46;16.00;99.90
12893;DHT22;6514;48.606;9.222;2023-06-26T02:34:14;16.00;99.90
12893;DHT22;6514;48.606;9.222;2023-06-26T02:36:41;15.90;99.90
12893;DHT22;6514;48.606;9.222;2023-06-26T02:39:08;15.90;99.90
12893;DHT22;6514;48.606;9.222;2023-06-26T02:41:34;15.90;99.90
12893;DHT22;6514;48.606;9.222;2023-06-26T02:44:01;15.80;99.90
12893;DHT22;6514;48.606;9.222;2023-06-26T02:46:28;15.80;99.90
12893;DHT22;6514;48.606;9.222;2023-06-26T02:48:55;15.80;99.90
12893;DHT22;6514;48.606;9.222;2023-06-26T02:51:23;15.80;99.90
12893;DHT22;6514;48.606;9.222;2023-06-26T02:53:50;15.80;99.90
12893;DHT22;6514;48.606;9.222;2023-06-26T02:56:16;15.90;99.90
12893;DHT22;6514;48.606;9.222;2023-06-26T02:58:43;15.90;99.90
12893;DHT22;6514;48.606;9.222;2023-06-26T03:01:10;15.90;99.90
12893;DHT22;6514;48.606;9.222;2023-06-26T03:03:37;15.90;99.90
12893;DHT22;6514;48.606;9.222;2023-06-26T03:06:06;16.00;99.90
12893;DHT22;6514;48.606;9.222;2023-06-26T03:08:36;16.00;99.90
12893;DHT22;6514;48.606;9.222;2023-06-26T03:11:04;15.90;99.90
12893;DHT22;6514;48.606;9.222;2023-06-26T03:13:31;15.90;99.90
12893;DHT22;6514;48.606;9.222;2023-06-26T03:15:58;15.90;99.90
12893;DHT22;6514;48.606;9.222;2023-06-26T03:18:25;15.90;99.90
12893;DHT22;6514;48.606;9.222;2023-06-26T03:20:52;15.90;99.90
12893;DHT22;6514;48.606;9.222;2023-06-26T03:23:19;15.80;99.90
12893;DHT22;6514;48.606;9.222;2023-06-26T03:25:47;15.80;99.90
12893;DHT22;6514;48.606;9.222;2023-06-26T03:28:14;15.80;99.90
12893;DHT22;6514;48.606;9.222;2023-06-26T03:30:41;15.80;99.90
12893;DHT22;6514;48.606;9.222;2023-06-26T03:33:08;15.70;99.90
12893;DHT22;6514;48.606;9.222;2023-06-26T03:35:35;15.70;99.90
12893;DHT22;6514;48.606;9.222;2023-06-26T03:38:03;15.70;99.90
12893;DHT22;6514;48.606;9.222;2023-06-26T03:40:30;15.60;99.90
12893;DHT22;6514;48.606;9.222;2023-06-26T03:42:58;15.60;99.90
12893;DHT22;6514;48.606;9.222;2023-06-26T03:45:24;15.60;99.90
12893;DHT22;6514;48.606;9.222;2023-06-26T03:47:51;15.60;99.90
12893;DHT22;6514;48.606;9.222;2023-06-26T03:50:18;15.60;99.90
12893;DHT22;6514;48.606;9.222;2023-06-26T03:52:45;15.60;99.90
12893;DHT22;6514;48.606;9.222;2023-06-26T03:55:12;15.60;99.90
12893;DHT22;6514;48.606;9.222;2023-06-26T03:57:39;15.70;99.90
12893;DHT22;6514;48.606;9.222;2023-06-26T04:00:08;15.70;99.90
12893;DHT22;6514;48.606;9.222;2023-06-26T04:02:36;15.70;99.90
12893;DHT22;6514;48.606;9.222;2023-06-26T04:05:04;15.80;99.90
12893;DHT22;6514;48.606;9.222;2023-06-26T04:07:31;15.80;99.90
12893;DHT22;6514;48.606;9.222;2023-06-26T04:09:58;15.80;99.90
12893;DHT22;6514;48.606;9.222;2023-06-26T04:12:25;15.80;99.90
12893;DHT22;6514;48.606;9.222;2023-06-26T04:14:51;15.80;99.90
12893;DHT22;6514;48.606;9.222;2023-06-26T04:17:19;15.80;99.90
12893;DHT22;6514;48.606;9.222;2023-06-26T04:19:47;15.80;99.90
12893;DHT22;6514;48.606;9.222;2023-06-26T04:22:14;15.90;99.90
12893;DHT22;6514;48.606;9.222;2023-06-26T04:24:40;15.90;99.90
12893;DHT22;6514;48.606;9.222;2023-06-26T04:27:07;15.90;99.90
12893;DHT22;6514;48.606;9.222;2023-06-26T04:29:34;15.90;99.90
12893;DHT22;6514;48.606;9.222;2023-06-26T04:32:01;16.00;99.90
12893;DHT22;6514;48.606;9.222;2023-06-26T04:34:30;16.00;99.90
12893;DHT22;6514;48.606;9.222;2023-06-26T04:36:58;16.10;99.90
12893;DHT22;6514;48.606;9.222;2023-06-26T04:39:24;16.30;99.90
12893;DHT22;6514;48.606;9.222;2023-06-26T04:41:51;16.50;99.90
12893;DHT22;6514;48.606;9.222;2023-06-26T04:44:18;16.90;99.90
12893;DHT22;6514;48.606;9.222;2023-06-26T04:46:45;17.10;99.90
12893;DHT22;6514;48.606;9.222;2023-06-26T04:49:11;17.20;99.90
12893;DHT22;6514;48.606;9.222;2023-06-26T04:51:40;17.30;99.90
12893;DHT22;6514;48.606;9.222;2023-06-26T04:54:07;17.20;99.90
12893;DHT22;6514;48.606;9.222;2023-06-26T04:56:34;17.20;99.90
12893;DHT22;6514;48.606;9.222;2023-06-26T04:59:01;17.10;99.90
12893;DHT22;6514;48.606;9.222;2023-06-26T05:01:28;17.20;99.90
12893;DHT22;6514;48.606;9.222;2023-06-26T05:03:55;17.20;99.90
12893;DHT22;6514;48.606;9.222;2023-06-26T05:06:22;17.20;99.90
12893;DHT22;6514;48.606;9.222;2023-06-26T05:08:50;17.30;99.90
12893;DHT22;6514;48.606;9.222;2023-06-26T05:11:17;17.30;99.90
12893;DHT22;6514;48.606;9.222;2023-06-26T05:13:43;17.40;99.90
12893;DHT22;6514;48.606;9.222;2023-06-26T05:16:10;17.50;99.90
12893;DHT22;6514;48.606;9.222;2023-06-26T05:18:37;17.70;99.90
12893;DHT22;6514;48.606;9.222;2023-06-26T05:21:04;17.80;99.90
12893;DHT22;6514;48.606;9.222;2023-06-26T05:23:33;17.90;99.90
12893;DHT22;6514;48.606;9.222;2023-06-26T05:26:02;18.30;99.90
12893;DHT22;6514;48.606;9.222;2023-06-26T05:28:30;18.70;99.90
12893;DHT22;6514;48.606;9.222;2023-06-26T05:30:57;19.20;99.90
12893;DHT22;6514;48.606;9.222;2023-06-26T05:33:27;19.60;99.90
12893;DHT22;6514;48.606;9.222;2023-06-26T05:35:55;20.00;99.90
12893;DHT22;6514;48.606;9.222;2023-06-26T05:38:22;20.30;99.90
12893;DHT22;6514;48.606;9.222;2023-06-26T05:40:50;20.60;99.90
12893;DHT22;6514;48.606;9.222;2023-06-26T05:43:19;20.90;99.90
12893;DHT22;6514;48.606;9.222;2023-06-26T05:45:47;21.20;99.90
12893;DHT22;6514;48.606;9.222;2023-06-26T05:48:14;21.50;99.90
12893;DHT22;6514;48.606;9.222;2023-06-26T05:50:42;21.90;99.90
12893;DHT22;6514;48.606;9.222;2023-06-26T05:53:09;22.30;99.90
12893;DHT22;6514;48.606;9.222;2023-06-26T05:55:37;22.60;99.90
12893;DHT22;6514;48.606;9.222;2023-06-26T05:58:05;23.00;99.90
12893;DHT22;6514;48.606;9.222;2023-06-26T06:00:34;23.30;99.90
12893;DHT22;6514;48.606;9.222;2023-06-26T06:03:01;23.50;99.90
12893;DHT22;6514;48.606;9.222;2023-06-26T06:05:27;23.80;99.90
12893;DHT22;6514;48.606;9.222;2023-06-26T06:07:54;24.10;99.90
12893;DHT22;6514;48.606;9.222;2023-06-26T06:10:21;24.30;99.90
12893;DHT22;6514;48.606;9.222;2023-06-26T06:12:48;24.50;99.90
12893;DHT22;6514;48.606;9.222;2023-06-26T06:15:14;24.60;99.90
12893;DHT22;6514;48.606;9.222;2023-06-26T06:17:43;24.70;99.90
12893;DHT22;6514;48.606;9.222;2023-06-26T06:20:10;24.90;99.90
12893;DHT22;6514;48.606;9.222;2023-06-26T06:22:37;25.10;99.90
12893;DHT22;6514;48.606;9.222;2023-06-26T06:25:04;25.40;99.90
12893;DHT22;6514;48.606;9.222;2023-06-26T06:27:31;25.50;99.90
12893;DHT22;6514;48.606;9.222;2023-06-26T06:29:58;25.60;99.90
12893;DHT22;6514;48.606;9.222;2023-06-26T06:32:24;25.60;99.90
12893;DHT22;6514;48.606;9.222;2023-06-26T06:34:53;25.70;99.90
12893;DHT22;6514;48.606;9.222;2023-06-26T06:37:19;25.70;99.90
12893;DHT22;6514;48.606;9.222;2023-06-26T06:39:46;25.90;99.90
12893;DHT22;6514;48.606;9.222;2023-06-26T06:42:13;26.10;99.90
12893;DHT22;6514;48.606;9.222;2023-06-26T06:44:40;26.10;99.90
12893;DHT22;6514;48.606;9.222;2023-06-26T06:47:07;26.40;99.90
12893;DHT22;6514;48.606;9.222;2023-06-26T06:49:33;26.70;99.90
12893;DHT22;6514;48.606;9.222;2023-06-26T06:52:01;27.10;99.90
12893;DHT22;6514;48.606;9.222;2023-06-26T06:54:28;27.20;99.90
12893;DHT22;6514;48.606;9.222;2023-06-26T06:56:55;27.20;99.90
12893;DHT22;6514;48.606;9.222;2023-06-26T06:59:22;27.50;99.90
12893;DHT22;6514;48.606;9.222;2023-06-26T07:01:48;27.70;99.90
12893;DHT22;6514;48.606;9.222;2023-06-26T07:04:15;27.80;99.90
12893;DHT22;6514;48.606;9.222;2023-06-26T07:06:42;27.90;99.90
12893;DHT22;6514;48.606;9.222;2023-06-26T07:09:10;27.90;99.90
12893;DHT22;6514;48.606;9.222;2023-06-26T07:11:37;28.10;99.90
12893;DHT22;6514;48.606;9.222;2023-06-26T07:14:04;28.30;99.90
12893;DHT22;6514;48.606;9.222;2023-06-26T07:16:31;28.60;99.90
12893;DHT22;6514;48.606;9.222;2023-06-26T07:18:58;28.90;99.90
12893;DHT22;6514;48.606;9.222;2023-06-26T07:21:24;28.90;99.90
12893;DHT22;6514;48.606;9.222;2023-06-26T07:23:51;29.30;99.90
12893;DHT22;6514;48.606;9.222;2023-06-26T07:26:19;29.60;99.90
12893;DHT22;6514;48.606;9.222;2023-06-26T07:28:47;29.50;99.90
12893;DHT22;6514;48.606;9.222;2023-06-26T07:31:15;29.70;99.90
12893;DHT22;6514;48.606;9.222;2023-06-26T07:33:43;30.00;99.90
12893;DHT22;6514;48.606;9.222;2023-06-26T07:36:09;30.10;99.90
12893;DHT22;6514;48.606;9.222;2023-06-26T07:38:36;30.10;99.90
12893;DHT22;6514;48.606;9.222;2023-06-26T07:41:03;30.00;99.90
12893;DHT22;6514;48.606;9.222;2023-06-26T07:43:31;30.20;99.90
12893;DHT22;6514;48.606;9.222;2023-06-26T07:45:58;30.50;99.90
12893;DHT22;6514;48.606;9.222;2023-06-26T07:48:25;30.80;99.90
12893;DHT22;6514;48.606;9.222;2023-06-26T07:50:52;30.90;99.90
12893;DHT22;6514;48.606;9.222;2023-06-26T07:53:19;30.80;99.90
12893;DHT22;6514;48.606;9.222;2023-06-26T07:55:45;30.90;99.90
12893;DHT22;6514;48.606;9.222;2023-06-26T07:58:12;31.10;99.90
12893;DHT22;6514;48.606;9.222;2023-06-26T08:00:40;31.10;99.90
12893;DHT22;6514;48.606;9.222;2023-06-26T08:03:07;31.30;99.90
12893;DHT22;6514;48.606;9.222;2023-06-26T08:05:34;31.40;99.90
12893;DHT22;6514;48.606;9.222;2023-06-26T08:08:01;31.70;99.90
12893;DHT22;6514;48.606;9.222;2023-06-26T08:10:28;32.10;99.70
12893;DHT22;6514;48.606;9.222;2023-06-26T08:12:56;32.40;99.30
12893;DHT22;6514;48.606;9.222;2023-06-26T08:15:22;32.80;98.40
12893;DHT22;6514;48.606;9.222;2023-06-26T08:17:50;33.20;97.90
12893;DHT22;6514;48.606;9.222;2023-06-26T08:20:17;33.30;97.70
12893;DHT22;6514;48.606;9.222;2023-06-26T08:22:44;33.50;98.10
12893;DHT22;6514;48.606;9.222;2023-06-26T08:25:13;33.50;96.80
12893;DHT22;6514;48.606;9.222;2023-06-26T08:27:40;33.60;97.60
12893;DHT22;6514;48.606;9.222;2023-06-26T08:30:07;33.50;97.40
12893;DHT22;6514;48.606;9.222;2023-06-26T08:32:34;33.80;96.00
12893;DHT22;6514;48.606;9.222;2023-06-26T08:35:03;33.90;96.40
12893;DHT22;6514;48.606;9.222;2023-06-26T08:37:29;34.10;96.10
12893;DHT22;6514;48.606;9.222;2023-06-26T08:39:58;34.20;95.80
12893;DHT22;6514;48.606;9.222;2023-06-26T08:42:25;34.20;95.80
12893;DHT22;6514;48.606;9.222;2023-06-26T08:44:52;34.30;95.60
12893;DHT22;6514;48.606;9.222;2023-06-26T08:47:19;34.60;94.20
12893;DHT22;6514;48.606;9.222;2023-06-26T08:49:48;34.70;93.90
12893;DHT22;6514;48.606;9.222;2023-06-26T08:52:22;34.90;93.80
12893;DHT22;6514;48.606;9.222;2023-06-26T08:54:54;34.80;92.20
12893;DHT22;6514;48.606;9.222;2023-06-26T08:57:23;35.00;94.00
12893;DHT22;6514;48.606;9.222;2023-06-26T08:59:50;35.30;93.00
12893;DHT22;6514;48.606;9.222;2023-06-26T09:02:18;35.40;91.90
12893;DHT22;6514;48.606;9.222;2023-06-26T09:04:47;35.60;93.30
12893;DHT22;6514;48.606;9.222;2023-06-26T09:07:14;35.70;90.10
12893;DHT22;6514;48.606;9.222;2023-06-26T09:09:42;35.90;91.80
12893;DHT22;6514;48.606;9.222;2023-06-26T09:12:09;36.20;90.80
12893;DHT22;6514;48.606;9.222;2023-06-26T09:14:37;35.90;90.60
12893;DHT22;6514;48.606;9.222;2023-06-26T09:17:04;36.20;90.50
12893;DHT22;6514;48.606;9.222;2023-06-26T09:19:31;36.40;90.40
12893;DHT22;6514;48.606;9.222;2023-06-26T09:21:58;36.50;89.00
12893;DHT22;6514;48.606;9.222;2023-06-26T09:24:25;36.60;90.90
12893;DHT22;6514;48.606;9.222;2023-06-26T09:26:53;36.80;91.30
12893;DHT22;6514;48.606;9.222;2023-06-26T09:29:20;36.90;89.30
12893;DHT22;6514;48.606;9.222;2023-06-26T09:31:47;37.10;85.10
12893;DHT22;6514;48.606;9.222;2023-06-26T09:34:14;37.00;85.80
12893;DHT22;6514;48.606;9.222;2023-06-26T09:36:41;37.00;84.80
12893;DHT22;6514;48.606;9.222;2023-06-26T09:39:12;37.00;83.20
12893;DHT22;6514;48.606;9.222;2023-06-26T09:41:41;37.10;85.30
12893;DHT22;6514;48.606;9.222;2023-06-26T09:44:11;37.20;83.10
12893;DHT22;6514;48.606;9.222;2023-06-26T09:46:38;37.10;83.30
12893;DHT22;6514;48.606;9.222;2023-06-26T09:49:06;36.80;83.30
12893;DHT22;6514;48.606;9.222;2023-06-26T09:51:34;36.20;84.50
12893;DHT22;6514;48.606;9.222;2023-06-26T09:54:03;35.40;86.70
12893;DHT22;6514;48.606;9.222;2023-06-26T09:56:31;34.60;86.50
12893;DHT22;6514;48.606;9.222;2023-06-26T09:58:59;34.20;88.50
12893;DHT22;6514;48.606;9.222;2023-06-26T10:01:28;34.10;90.20
12893;DHT22;6514;48.606;9.222;2023-06-26T10:03:54;33.70;88.50
12893;DHT22;6514;48.606;9.222;2023-06-26T10:06:26;33.30;88.80
12893;DHT22;6514;48.606;9.222;2023-06-26T10:08:55;32.90;90.20
12893;DHT22;6514;48.606;9.222;2023-06-26T10:11:23;32.60;90.60
12893;DHT22;6514;48.606;9.222;2023-06-26T10:13:53;32.40;91.50
12893;DHT22;6514;48.606;9.222;2023-06-26T10:16:26;32.20;91.80
12893;DHT22;6514;48.606;9.222;2023-06-26T10:18:58;32.70;92.80
12893;DHT22;6514;48.606;9.222;2023-06-26T10:21:26;33.30;92.50
12893;DHT22;6514;48.606;9.222;2023-06-26T10:23:56;33.60;91.10
12893;DHT22;6514;48.606;9.222;2023-06-26T10:26:24;33.50;87.60
12893;DHT22;6514;48.606;9.222;2023-06-26T10:28:52;33.30;90.00
12893;DHT22;6514;48.606;9.222;2023-06-26T10:31:22;33.00;89.10
12893;DHT22;6514;48.606;9.222;2023-06-26T10:33:50;33.40;90.40
12893;DHT22;6514;48.606;9.222;2023-06-26T10:36:20;33.60;89.40
12893;DHT22;6514;48.606;9.222;2023-06-26T10:38:51;34.00;89.00
12893;DHT22;6514;48.606;9.222;2023-06-26T10:41:20;34.40;89.40
12893;DHT22;6514;48.606;9.222;2023-06-26T10:43:50;34.90;86.40
12893;DHT22;6514;48.606;9.222;2023-06-26T10:46:18;35.70;85.00
12893;DHT22;6514;48.606;9.222;2023-06-26T10:48:56;36.40;86.80
12893;DHT22;6514;48.606;9.222;2023-06-26T10:51:25;36.80;87.10
12893;DHT22;6514;48.606;9.222;2023-06-26T10:53:54;36.60;80.00
12893;DHT22;6514;48.606;9.222;2023-06-26T10:56:21;36.00;79.80
12893;DHT22;6514;48.606;9.222;2023-06-26T10:59:18;35.20;80.60
12893;DHT22;6514;48.606;9.222;2023-06-26T11:01:46;34.20;82.90
12893;DHT22;6514;48.606;9.222;2023-06-26T11:04:14;33.60;84.30
12893;DHT22;6514;48.606;9.222;2023-06-26T11:06:45;33.20;87.00
12893;DHT22;6514;48.606;9.222;2023-06-26T11:09:15;33.00;90.10
12893;DHT22;6514;48.606;9.222;2023-06-26T11:11:58;33.40;89.00
12893;DHT22;6514;48.606;9.222;2023-06-26T11:14:28;34.10;89.70
12893;DHT22;6514;48.606;9.222;2023-06-26T11:16:58;35.00;90.00
12893;DHT22;6514;48.606;9.222;2023-06-26T11:19:26;35.70;84.10
12893;DHT22;6514;48.606;9.222;2023-06-26T11:22:01;36.20;87.70
12893;DHT22;6514;48.606;9.222;2023-06-26T11:24:29;36.30;83.60
12893;DHT22;6514;48.606;9.222;2023-06-26T11:27:00;35.90;84.20
12893;DHT22;6514;48.606;9.222;2023-06-26T11:29:28;35.30;85.50
12893;DHT22;6514;48.606;9.222;2023-06-26T11:31:59;35.20;90.00
12893;DHT22;6514;48.606;9.222;2023-06-26T11:34:29;35.90;89.00
12893;DHT22;6514;48.606;9.222;2023-06-26T11:36:58;36.40;86.30
12893;DHT22;6514;48.606;9.222;2023-06-26T11:39:27;37.10;85.90
12893;DHT22;6514;48.606;9.222;2023-06-26T11:41:53;37.50;86.80
12893;DHT22;6514;48.606;9.222;2023-06-26T11:44:21;37.80;84.70
12893;DHT22;6514;48.606;9.222;2023-06-26T11:46:51;38.00;84.10
12893;DHT22;6514;48.606;9.222;2023-06-26T11:49:21;38.10;81.60
12893;DHT22;6514;48.606;9.222;2023-06-26T11:51:51;37.90;84.20
12893;DHT22;6514;48.606;9.222;2023-06-26T11:54:25;37.70;83.90
12893;DHT22;6514;48.606;9.222;2023-06-26T11:56:53;37.70;84.00
12893;DHT22;6514;48.606;9.222;2023-06-26T11:59:22;37.90;84.40
12893;DHT22;6514;48.606;9.222;2023-06-26T12:01:50;37.80;81.50
12893;DHT22;6514;48.606;9.222;2023-06-26T12:04:18;37.10;80.70
12893;DHT22;6514;48.606;9.222;2023-06-26T12:06:47;36.20;84.00
12893;DHT22;6514;48.606;9.222;2023-06-26T12:09:14;35.30;83.90
12893;DHT22;6514;48.606;9.222;2023-06-26T12:11:45;34.70;85.00
12893;DHT22;6514;48.606;9.222;2023-06-26T12:14:14;34.40;87.30
12893;DHT22;6514;48.606;9.222;2023-06-26T12:16:42;34.30;86.60
12893;DHT22;6514;48.606;9.222;2023-06-26T12:19:09;34.60;90.50
12893;DHT22;6514;48.606;9.222;2023-06-26T12:21:47;35.00;88.60
12893;DHT22;6514;48.606;9.222;2023-06-26T12:24:19;35.30;87.00
12893;DHT22;6514;48.606;9.222;2023-06-26T12:26:50;35.60;87.10
12893;DHT22;6514;48.606;9.222;2023-06-26T12:29:20;35.90;86.10
12893;DHT22;6514;48.606;9.222;2023-06-26T12:31:50;36.10;90.10
12893;DHT22;6514;48.606;9.222;2023-06-26T12:34:19;36.10;84.60
12893;DHT22;6514;48.606;9.222;2023-06-26T12:36:48;35.50;86.80
12893;DHT22;6514;48.606;9.222;2023-06-26T12:39:16;35.30;88.30
12893;DHT22;6514;48.606;9.222;2023-06-26T12:41:48;35.20;89.50
12893;DHT22;6514;48.606;9.222;2023-06-26T12:44:20;35.40;89.60
12893;DHT22;6514;48.606;9.222;2023-06-26T12:46:48;35.90;89.80
12893;DHT22;6514;48.606;9.222;2023-06-26T12:49:15;36.00;88.00
12893;DHT22;6514;48.606;9.222;2023-06-26T12:51:42;36.30;87.90
12893;DHT22;6514;48.606;9.222;2023-06-26T12:54:09;36.50;86.90
12893;DHT22;6514;48.606;9.222;2023-06-26T12:56:36;36.30;88.20
12893;DHT22;6514;48.606;9.222;2023-06-26T12:59:04;35.80;86.20
12893;DHT22;6514;48.606;9.222;2023-06-26T13:01:31;35.50;87.70
12893;DHT22;6514;48.606;9.222;2023-06-26T13:03:58;35.30;89.30
12893;DHT22;6514;48.606;9.222;2023-06-26T13:06:25;35.40;89.40
12893;DHT22;6514;48.606;9.222;2023-06-26T13:08:51;36.00;89.20
12893;DHT22;6514;48.606;9.222;2023-06-26T13:11:19;36.20;88.60
12893;DHT22;6514;48.606;9.222;2023-06-26T13:13:47;36.40;87.80
12893;DHT22;6514;48.606;9.222;2023-06-26T13:16:15;36.60;88.10
12893;DHT22;6514;48.606;9.222;2023-06-26T13:18:42;36.80;86.80
12893;DHT22;6514;48.606;9.222;2023-06-26T13:21:08;36.70;85.40
12893;DHT22;6514;48.606;9.222;2023-06-26T13:23:35;36.40;85.00
12893;DHT22;6514;48.606;9.222;2023-06-26T13:26:02;35.80;87.50
12893;DHT22;6514;48.606;9.222;2023-06-26T13:28:29;35.40;90.10
12893;DHT22;6514;48.606;9.222;2023-06-26T13:30:56;35.10;90.00
12893;DHT22;6514;48.606;9.222;2023-06-26T13:33:24;35.10;90.90
12893;DHT22;6514;48.606;9.222;2023-06-26T13:35:51;35.30;91.10
12893;DHT22;6514;48.606;9.222;2023-06-26T13:38:19;35.50;89.00
12893;DHT22;6514;48.606;9.222;2023-06-26T13:40:50;35.50;90.30
12893;DHT22;6514;48.606;9.222;2023-06-26T13:43:16;35.40;89.20
12893;DHT22;6514;48.606;9.222;2023-06-26T13:45:43;35.40;90.40
12893;DHT22;6514;48.606;9.222;2023-06-26T13:48:10;35.70;89.90
12893;DHT22;6514;48.606;9.222;2023-06-26T13:50:38;35.40;87.50
12893;DHT22;6514;48.606;9.222;2023-06-26T13:53:06;35.10;90.10
12893;DHT22;6514;48.606;9.222;2023-06-26T13:55:34;34.90;90.00
12893;DHT22;6514;48.606;9.222;2023-06-26T13:58:01;34.90;89.70
12893;DHT22;6514;48.606;9.222;2023-06-26T14:00:29;34.80;89.30
12893;DHT22;6514;48.606;9.222;2023-06-26T14:02:56;34.90;89.10
12893;DHT22;6514;48.606;9.222;2023-06-26T14:05:23;34.70;90.10
12893;DHT22;6514;48.606;9.222;2023-06-26T14:07:51;34.70;91.00
12893;DHT22;6514;48.606;9.222;2023-06-26T14:10:19;34.90;89.60
12893;DHT22;6514;48.606;9.222;2023-06-26T14:12:46;34.80;87.80
12893;DHT22;6514;48.606;9.222;2023-06-26T14:15:13;35.10;90.20
12893;DHT22;6514;48.606;9.222;2023-06-26T14:17:40;35.00;88.50
12893;DHT22;6514;48.606;9.222;2023-06-26T14:20:07;34.70;89.10
12893;DHT22;6514;48.606;9.222;2023-06-26T14:22:38;34.80;89.30
12893;DHT22;6514;48.606;9.222;2023-06-26T14:25:07;35.00;89.10
12893;DHT22;6514;48.606;9.222;2023-06-26T14:27:33;35.20;89.70
12893;DHT22;6514;48.606;9.222;2023-06-26T14:30:00;35.30;86.60
12893;DHT22;6514;48.606;9.222;2023-06-26T14:32:28;35.30;87.40
12893;DHT22;6514;48.606;9.222;2023-06-26T14:34:55;35.10;87.40
12893;DHT22;6514;48.606;9.222;2023-06-26T14:37:22;35.00;85.80
12893;DHT22;6514;48.606;9.222;2023-06-26T14:39:49;34.80;85.80
12893;DHT22;6514;48.606;9.222;2023-06-26T14:42:17;34.80;86.40
12893;DHT22;6514;48.606;9.222;2023-06-26T14:44:44;34.60;82.10
12893;DHT22;6514;48.606;9.222;2023-06-26T14:47:12;34.60;86.40
12893;DHT22;6514;48.606;9.222;2023-06-26T14:49:39;34.30;83.30
12893;DHT22;6514;48.606;9.222;2023-06-26T14:52:06;34.00;83.90
12893;DHT22;6514;48.606;9.222;2023-06-26T14:54:33;33.80;86.80
12893;DHT22;6514;48.606;9.222;2023-06-26T14:57:01;33.80;86.20
12893;DHT22;6514;48.606;9.222;2023-06-26T14:59:29;33.90;85.90
12893;DHT22;6514;48.606;9.222;2023-06-26T15:01:56;34.00;88.30
12893;DHT22;6514;48.606;9.222;2023-06-26T15:04:23;34.10;86.70
12893;DHT22;6514;48.606;9.222;2023-06-26T15:06:50;34.20;84.00
12893;DHT22;6514;48.606;9.222;2023-06-26T15:09:17;34.30;84.30
12893;DHT22;6514;48.606;9.222;2023-06-26T15:11:44;34.30;84.20
12893;DHT22;6514;48.606;9.222;2023-06-26T15:14:10;34.40;84.80
12893;DHT22;6514;48.606;9.222;2023-06-26T15:16:38;34.50;85.10
12893;DHT22;6514;48.606;9.222;2023-06-26T15:19:05;34.40;82.90
12893;DHT22;6514;48.606;9.222;2023-06-26T15:21:34;34.40;82.80
12893;DHT22;6514;48.606;9.222;2023-06-26T15:24:00;34.10;84.80
12893;DHT22;6514;48.606;9.222;2023-06-26T15:26:27;33.80;85.00
12893;DHT22;6514;48.606;9.222;2023-06-26T15:28:54;33.70;86.20
12893;DHT22;6514;48.606;9.222;2023-06-26T15:31:21;33.50;86.70
12893;DHT22;6514;48.606;9.222;2023-06-26T15:33:49;33.50;88.00
12893;DHT22;6514;48.606;9.222;2023-06-26T15:36:16;33.30;86.80
12893;DHT22;6514;48.606;9.222;2023-06-26T15:38:44;33.40;86.50
12893;DHT22;6514;48.606;9.222;2023-06-26T15:41:11;33.50;87.80
12893;DHT22;6514;48.606;9.222;2023-06-26T15:43:38;33.40;86.80
12893;DHT22;6514;48.606;9.222;2023-06-26T15:46:06;33.40;88.50
12893;DHT22;6514;48.606;9.222;2023-06-26T15:48:33;33.40;87.30